Time;durP1;ratioP1;P1;durP2;ratioP2;P2;SDS_P1;SDS_P2;PMS_P1;PMS_P2;Temp;Humidity;BMP_temperature;BMP_pressure;BME280_temperature;BME280_humidity;BME280_pressure;Samples;Min_cycle;Max_cycle;Signal;HPM_P1;HPM_P2
2022/06/19 00:02:12;;;;;;;;;9.75;8.25;;;;;30.58;31.10;100121.25;5021246;28;45225;-53
2022/06/19 00:04:39;;;;;;;;;14.50;9.75;;;;;30.64;30.98;100130.56;5021192;28;45621;-51
2022/06/19 00:07:04;;;;;;;;;14.75;10.75;;;;;30.62;31.26;100151.59;5021118;28;45318;-48
2022/06/19 00:09:29;;;;;;;;;19.50;14.00;;;;;30.64;31.84;100138.69;5021182;28;45457;-52
2022/06/19 00:11:55;;;;;;;;;17.75;17.75;;;;;30.64;33.74;100157.66;5019555;28;45306;-50
2022/06/19 00:14:22;;;;;;;;;18.50;16.25;;;;;30.60;34.19;100164.44;5036536;28;46112;-52
2022/06/19 00:16:47;;;;;;;;;22.50;17.50;;;;;30.53;35.28;100158.84;5020805;28;45295;-54
2022/06/19 00:19:13;;;;;;;;;19.00;16.00;;;;;30.45;36.19;100166.91;5021105;28;45186;-51
2022/06/19 00:21:38;;;;;;;;;18.25;16.50;;;;;30.22;37.18;100172.94;5021110;28;45471;-46
2022/06/19 00:24:04;;;;;;;;;20.75;16.00;;;;;30.19;37.51;100192.25;5020992;28;45241;-49
2022/06/19 00:26:29;;;;;;;;;17.50;15.00;;;;;30.02;38.57;100196.72;5020563;28;45435;-49
2022/06/19 00:28:56;;;;;;;;;19.50;18.50;;;;;29.92;38.98;100223.94;5020985;28;45209;-51
2022/06/19 00:31:22;;;;;;;;;16.75;13.75;;;;;29.75;39.29;100206.72;5020835;28;45425;-51
2022/06/19 00:33:47;;;;;;;;;17.75;17.00;;;;;29.62;40.21;100212.56;5020676;28;45613;-50
2022/06/19 00:36:12;;;;;;;;;20.00;16.50;;;;;29.48;39.96;100203.16;5035801;28;47129;-49
2022/06/19 00:38:38;;;;;;;;;20.50;18.75;;;;;29.26;40.33;100198.22;5019373;28;45314;-51
2022/06/19 00:41:04;;;;;;;;;16.25;15.75;;;;;29.13;40.50;100187.78;5020167;28;45302;-47
2022/06/19 00:43:30;;;;;;;;;13.25;13.25;;;;;29.05;40.56;100210.22;5019496;28;45478;-51
2022/06/19 00:46:22;;;;;;;;;18.50;17.50;;;;;28.85;41.20;100221.19;5019204;28;45322;-50
2022/06/19 00:48:47;;;;;;;;;16.75;14.75;;;;;28.64;40.68;100221.44;5016726;28;45431;-50
2022/06/19 00:51:13;;;;;;;;;13.50;12.25;;;;;28.54;40.56;100220.63;5036080;28;45316;-52
2022/06/19 00:53:45;;;;;;;;;17.00;15.25;;;;;28.39;41.10;100225.72;5019052;28;45572;-50
2022/06/19 00:56:15;;;;;;;;;12.25;11.25;;;;;28.20;41.18;100224.81;5020315;28;47285;-52
2022/06/19 00:58:42;;;;;;;;;9.75;9.50;;;;;28.05;41.04;100231.72;5020302;28;45374;-49
2022/06/19 01:01:14;;;;;;;;;15.00;11.75;;;;;27.88;40.43;100241.38;5020331;28;45228;-51
2022/06/19 01:04:08;;;;;;;;;9.75;8.00;;;;;27.74;40.20;100256.19;5020226;28;45415;-50
2022/06/19 01:06:34;;;;;;;;;11.25;9.50;;;;;27.47;40.48;100279.38;5020280;28;45455;-51
2022/06/19 01:09:00;;;;;;;;;8.00;8.00;;;;;27.18;40.44;100266.72;5019140;28;45392;-51
2022/06/19 01:11:30;;;;;;;;;7.75;7.25;;;;;26.87;40.87;100249.81;5020230;28;45475;-48
2022/06/19 01:13:57;;;;;;;;;9.50;7.00;;;;;26.68;40.55;100272.13;5018556;28;45547;-49
2022/06/19 01:16:22;;;;;;;;;15.75;11.25;;;;;26.47;41.24;100288.38;5019866;28;46028;-50
2022/06/19 01:18:47;;;;;;;;;10.00;6.75;;;;;26.26;40.58;100267.72;5020321;28;45378;-50
2022/06/19 01:21:20;;;;;;;;;10.00;9.25;;;;;26.11;41.75;100278.00;5018902;28;45425;-51
2022/06/19 01:24:07;;;;;;;;;8.00;8.00;;;;;25.92;41.60;100263.44;5019334;28;45377;-49
2022/06/19 01:26:38;;;;;;;;;8.75;8.00;;;;;25.72;41.67;100270.53;5019788;28;46354;-49
2022/06/19 01:29:04;;;;;;;;;8.25;6.25;;;;;25.55;42.39;100266.59;5020021;28;45497;-49
2022/06/19 01:31:33;;;;;;;;;12.75;7.75;;;;;25.41;41.68;100272.31;5034925;28;45473;-50
2022/06/19 01:34:28;;;;;;;;;9.75;9.75;;;;;25.15;42.12;100259.16;5018524;28;45274;-50
2022/06/19 01:37:17;;;;;;;;;9.50;9.25;;;;;25.07;42.42;100270.56;5019893;28;45405;-50
2022/06/19 01:39:50;;;;;;;;;10.25;9.25;;;;;24.92;42.92;100285.28;5018402;28;45289;-52
2022/06/19 01:42:17;;;;;;;;;11.00;10.25;;;;;24.76;43.09;100285.66;5035053;28;45463;-51
2022/06/19 01:44:45;;;;;;;;;11.25;10.00;;;;;24.63;42.91;100291.16;5019897;28;45569;-51
2022/06/19 01:47:12;;;;;;;;;15.50;12.75;;;;;24.58;43.37;100304.94;5018361;28;47430;-51
2022/06/19 01:49:41;;;;;;;;;15.75;13.00;;;;;24.44;43.29;100289.94;5016244;28;45384;-49
2022/06/19 01:52:07;;;;;;;;;13.25;10.75;;;;;24.36;43.37;100296.88;5020720;28;45316;-52
2022/06/19 01:54:48;;;;;;;;;13.00;11.25;;;;;24.15;43.67;100278.78;5023452;28;45415;-53
2022/06/19 01:57:16;;;;;;;;;15.00;12.75;;;;;24.00;43.71;100294.31;5022973;28;47305;-51
2022/06/19 01:59:44;;;;;;;;;10.25;9.25;;;;;23.83;43.51;100283.00;5023283;28;45284;-52
2022/06/19 02:02:12;;;;;;;;;11.25;10.75;;;;;23.69;43.98;100286.75;5023090;28;45256;-52
2022/06/19 02:04:37;;;;;;;;;17.00;13.00;;;;;23.60;44.22;100290.13;5022754;28;45521;-52
2022/06/19 02:07:14;;;;;;;;;11.50;11.50;;;;;23.47;44.30;100295.59;5038437;28;47108;-49
2022/06/19 02:09:40;;;;;;;;;14.50;10.75;;;;;23.41;44.03;100312.13;5023044;28;45296;-48
2022/06/19 02:12:07;;;;;;;;;13.75;10.00;;;;;23.34;44.18;100317.06;5022868;28;45311;-51
2022/06/19 02:14:34;;;;;;;;;13.50;12.75;;;;;23.33;44.27;100344.00;5038591;28;45421;-51
2022/06/19 02:17:50;;;;;;;;;13.00;10.25;;;;;23.28;44.47;100352.41;5022861;28;46124;-52
2022/06/19 02:20:17;;;;;;;;;9.75;8.25;;;;;23.21;44.34;100353.81;5013950;28;45505;-49
2022/06/19 02:22:43;;;;;;;;;11.75;9.00;;;;;23.15;44.39;100359.59;5022762;28;45360;-49
2022/06/19 02:25:08;;;;;;;;;8.00;8.00;;;;;23.04;44.48;100374.63;5023051;28;45438;-50
2022/06/19 02:27:35;;;;;;;;;12.25;9.50;;;;;23.01;44.58;100395.44;5022495;28;45612;-52
2022/06/19 02:30:02;;;;;;;;;11.75;8.50;;;;;22.97;44.58;100380.56;5038460;28;45492;-48
2022/06/19 02:32:34;;;;;;;;;11.00;8.00;;;;;22.94;44.61;100362.00;5022245;28;45284;-51
2022/06/19 02:35:00;;;;;;;;;7.00;6.50;;;;;22.86;44.65;100355.38;5022898;28;45379;-49
2022/06/19 02:37:32;;;;;;;;;10.25;10.00;;;;;22.82;44.61;100353.03;5022503;28;46031;-52
2022/06/19 02:40:22;;;;;;;;;11.75;10.75;;;;;22.81;44.79;100356.69;5023003;28;45494;-51
2022/06/19 02:42:50;;;;;;;;;10.25;7.75;;;;;22.76;45.11;100361.53;5022586;28;45487;-51
2022/06/19 02:45:21;;;;;;;;;11.50;8.75;;;;;22.79;45.11;100337.19;5021169;28;45870;-51
2022/06/19 02:47:48;;;;;;;;;9.75;8.75;;;;;22.77;45.03;100349.84;5020906;28;46131;-50
2022/06/19 02:50:21;;;;;;;;;11.25;8.75;;;;;22.76;44.84;100353.47;5019292;28;45284;-51
2022/06/19 02:52:48;;;;;;;;;9.25;9.00;;;;;22.78;45.12;100362.25;5022474;28;45465;-51
2022/06/19 02:55:14;;;;;;;;;10.50;9.00;;;;;22.69;44.88;100444.09;5020512;28;45272;-51
2022/06/19 02:57:40;;;;;;;;;12.25;10.50;;;;;22.49;47.04;100659.66;5022056;28;45631;-48
2022/06/19 03:00:09;;;;;;;;;12.75;11.00;;;;;22.06;46.86;100581.19;5022102;28;45244;-49
2022/06/19 03:02:34;;;;;;;;;9.75;9.00;;;;;21.99;47.09;100475.53;5021778;28;45388;-53
2022/06/19 03:05:02;;;;;;;;;12.25;9.75;;;;;21.98;47.07;100556.75;5022149;28;45445;-51
2022/06/19 03:07:29;;;;;;;;;16.50;11.00;;;;;21.98;46.87;100562.09;5036865;28;46268;-48
2022/06/19 03:09:55;;;;;;;;;11.00;9.25;;;;;21.98;47.35;100577.31;5021964;28;45236;-52
2022/06/19 03:12:21;;;;;;;;;9.75;9.75;;;;;21.91;47.21;100545.59;5022034;28;45303;-50
2022/06/19 03:14:46;;;;;;;;;10.00;9.50;;;;;21.86;47.22;100529.00;5020662;28;45270;-52
2022/06/19 03:17:17;;;;;;;;;10.25;8.75;;;;;22.00;46.83;100524.53;5037303;28;47128;-52
2022/06/19 03:19:43;;;;;;;;;13.00;10.50;;;;;22.03;47.11;100538.56;5020739;28;45274;-50
2022/06/19 03:22:09;;;;;;;;;14.75;11.00;;;;;22.05;46.90;100525.13;5037427;28;45305;-52
2022/06/19 03:24:35;;;;;;;;;15.50;12.75;;;;;21.98;47.06;100495.22;5021881;28;45402;-50
2022/06/19 03:27:01;;;;;;;;;11.25;11.25;;;;;21.99;47.22;100529.03;5021621;28;46433;-50
2022/06/19 03:29:26;;;;;;;;;12.75;9.50;;;;;22.02;46.66;100526.16;5021934;28;45212;-50
2022/06/19 03:31:51;;;;;;;;;12.00;11.75;;;;;21.94;46.87;100496.41;5021929;28;45387;-49
2022/06/19 03:34:17;;;;;;;;;12.25;12.25;;;;;21.98;46.37;100507.75;5036880;28;45531;-50
2022/06/19 03:36:43;;;;;;;;;13.25;12.25;;;;;22.01;46.36;100497.72;5021662;28;45883;-51
2022/06/19 03:39:09;;;;;;;;;11.75;9.50;;;;;21.95;47.00;100498.13;5021631;28;45517;-52
2022/06/19 03:41:35;;;;;;;;;14.25;13.25;;;;;21.90;46.91;100489.53;5037102;28;45663;-51
2022/06/19 03:44:00;;;;;;;;;12.25;12.00;;;;;21.97;47.02;100538.97;5021544;28;45362;-52
2022/06/19 03:46:26;;;;;;;;;11.25;9.25;;;;;21.95;46.95;100534.69;5021357;28;45386;-52
2022/06/19 03:48:51;;;;;;;;;8.25;8.25;;;;;21.90;46.83;100521.63;5017881;28;46025;-53
2022/06/19 03:51:22;;;;;;;;;10.25;10.25;;;;;21.87;46.64;100522.69;5021740;28;45437;-53
2022/06/19 03:53:49;;;;;;;;;14.00;9.50;;;;;21.95;46.49;100548.06;5021620;28;45411;-47
2022/06/19 03:56:17;;;;;;;;;12.50;10.00;;;;;21.93;46.49;100564.22;5021195;28;45342;-52
2022/06/19 03:58:45;;;;;;;;;14.00;11.50;;;;;21.95;46.87;100561.44;5021342;28;45186;-53
2022/06/19 04:01:35;;;;;;;;;10.25;10.25;;;;;21.97;47.16;100562.22;5021450;28;45246;-53
2022/06/19 04:04:00;;;;;;;;;13.25;10.00;;;;;21.91;46.92;100582.16;5016221;28;45308;-52
2022/06/19 04:06:29;;;;;;;;;13.00;10.75;;;;;21.96;48.95;100609.50;5021264;28;46146;-53
2022/06/19 04:08:55;;;;;;;;;10.50;10.50;;;;;21.90;47.97;100615.25;5021500;28;45300;-51
2022/06/19 04:11:22;;;;;;;;;17.25;12.50;;;;;21.78;48.52;100559.88;5021071;28;45384;-52
2022/06/19 04:13:48;;;;;;;;;12.00;9.25;;;;;21.65;52.38;100571.34;5021197;28;45383;-53
2022/06/19 04:16:22;;;;;;;;;14.75;13.25;;;;;21.48;51.22;100590.22;5019949;28;46229;-51
2022/06/19 04:18:49;;;;;;;;;16.50;14.00;;;;;21.39;51.36;100556.91;5021404;28;45426;-52
2022/06/19 04:21:18;;;;;;;;;15.00;11.50;;;;;21.37;51.64;100500.00;5021008;28;45283;-51
2022/06/19 04:23:44;;;;;;;;;16.50;13.00;;;;;21.37;51.74;100511.59;5019822;28;45780;-50
2022/06/19 04:26:12;;;;;;;;;13.00;11.75;;;;;21.38;51.23;100486.56;5018836;28;46895;-53
2022/06/19 04:28:38;;;;;;;;;17.50;11.25;;;;;21.33;51.59;100461.94;5019787;28;45273;-52
2022/06/19 04:31:04;;;;;;;;;13.25;10.25;;;;;21.30;51.46;100437.25;5036010;28;45334;-52
2022/06/19 04:33:32;;;;;;;;;12.00;9.50;;;;;21.25;51.31;100430.38;5020942;28;45415;-51
2022/06/19 04:35:57;;;;;;;;;10.50;8.75;;;;;21.24;51.90;100447.38;5020663;28;45501;-53
2022/06/19 04:38:22;;;;;;;;;10.75;9.50;;;;;21.15;52.37;100450.63;5003072;28;45769;-52
2022/06/19 04:40:48;;;;;;;;;15.50;12.00;;;;;21.13;52.39;100435.63;5020656;28;45209;-52
2022/06/19 04:43:13;;;;;;;;;10.75;8.25;;;;;21.03;53.77;100414.00;5020926;28;45208;-52
2022/06/19 04:45:40;;;;;;;;;11.25;11.25;;;;;21.08;52.76;100435.91;5020430;28;45285;-52
2022/06/19 04:48:06;;;;;;;;;14.00;10.00;;;;;21.10;52.57;100458.06;5019153;28;45522;-51
2022/06/19 04:50:32;;;;;;;;;10.25;9.00;;;;;21.07;53.07;100448.44;5019089;28;45431;-49
2022/06/19 04:52:57;;;;;;;;;17.75;11.75;;;;;21.09;53.35;100442.97;5020659;28;45287;-48
2022/06/19 04:55:22;;;;;;;;;10.00;10.00;;;;;21.09;53.68;100483.06;5018873;28;47150;-49
2022/06/19 04:57:48;;;;;;;;;10.25;9.25;;;;;21.07;53.62;100496.50;5020678;28;45326;-50
2022/06/19 05:00:17;;;;;;;;;11.50;9.50;;;;;21.05;53.64;100482.38;5020523;28;45333;-48
2022/06/19 05:02:43;;;;;;;;;10.00;10.00;;;;;21.04;53.87;100506.53;5020289;28;45387;-52
2022/06/19 05:05:16;;;;;;;;;11.75;10.00;;;;;21.03;53.79;100520.84;5020082;28;46104;-51
2022/06/19 05:07:42;;;;;;;;;12.75;9.00;;;;;20.88;52.99;100544.88;5020321;28;45454;-52
2022/06/19 05:10:09;;;;;;;;;8.25;6.75;;;;;20.93;53.46;100563.28;5020303;28;45369;-50
2022/06/19 05:12:36;;;;;;;;;9.25;7.50;;;;;20.99;52.07;100533.50;5020112;28;45235;-53
2022/06/19 05:15:01;;;;;;;;;15.00;8.25;;;;;21.02;53.09;100481.72;5020311;28;45153;-51
2022/06/19 05:17:27;;;;;;;;;10.75;9.25;;;;;21.04;53.19;100391.66;5020116;28;45277;-50
2022/06/19 05:19:52;;;;;;;;;11.00;9.00;;;;;20.99;53.53;100281.59;5035759;28;45265;-53
2022/06/19 05:22:18;;;;;;;;;15.00;11.75;;;;;20.87;54.12;100293.97;5035383;28;45864;-50
2022/06/19 05:24:43;;;;;;;;;10.50;8.50;;;;;20.80;54.12;100305.97;5018905;28;48186;-53
2022/06/19 05:27:10;;;;;;;;;11.50;9.00;;;;;20.76;53.93;100334.69;5019856;28;45324;-52
2022/06/19 05:29:36;;;;;;;;;8.75;8.25;;;;;20.73;54.12;100343.75;5035581;28;45347;-52
2022/06/19 05:32:04;;;;;;;;;10.50;8.75;;;;;20.71;54.30;100355.47;5019909;28;45298;-51
2022/06/19 05:34:30;;;;;;;;;7.75;6.25;;;;;20.61;53.85;100345.31;5019830;28;45265;-49
2022/06/19 05:36:55;;;;;;;;;10.75;8.50;;;;;20.62;54.15;100367.56;5020017;28;45408;-48
2022/06/19 05:39:21;;;;;;;;;10.25;8.00;;;;;20.63;54.52;100382.63;5034779;28;45441;-50
2022/06/19 05:41:46;;;;;;;;;12.25;8.00;;;;;20.60;54.27;100378.34;5018445;28;45413;-53
2022/06/19 05:44:11;;;;;;;;;7.50;6.50;;;;;20.61;54.15;100372.00;5019688;28;45344;-51
2022/06/19 05:46:37;;;;;;;;;16.25;12.75;;;;;20.61;54.71;100365.84;5019884;28;45170;-51
2022/06/19 05:49:02;;;;;;;;;12.00;7.75;;;;;20.59;54.49;100363.25;5016340;28;45511;-53
2022/06/19 05:51:27;;;;;;;;;10.25;8.50;;;;;20.65;54.62;100399.38;5020069;28;45389;-52
2022/06/19 05:53:57;;;;;;;;;11.75;9.50;;;;;20.70;54.18;100402.63;5019618;28;46042;-53
2022/06/19 05:56:24;;;;;;;;;13.50;7.50;;;;;20.73;54.43;100374.94;5019819;28;45441;-51
2022/06/19 05:58:49;;;;;;;;;9.25;7.50;;;;;20.76;53.81;100380.06;5019710;28;45465;-51
2022/06/19 06:01:17;;;;;;;;;12.00;9.50;;;;;20.75;53.42;100354.31;5019485;28;45279;-52
2022/06/19 06:03:43;;;;;;;;;7.25;7.25;;;;;20.73;53.51;100319.72;5019307;28;45287;-51
2022/06/19 06:06:20;;;;;;;;;10.75;9.00;;;;;20.81;53.85;100307.69;5018516;28;45705;-50
2022/06/19 06:08:46;;;;;;;;;8.75;8.00;;;;;20.88;54.18;100306.31;5020096;28;45447;-53
2022/06/19 06:11:12;;;;;;;;;9.50;7.25;;;;;20.92;53.69;100318.53;5019228;28;45407;-52
2022/06/19 06:13:37;;;;;;;;;14.50;9.25;;;;;21.01;53.50;100312.59;5019422;28;45331;-49
2022/06/19 06:16:03;;;;;;;;;6.75;6.75;;;;;21.08;53.21;100343.31;5019368;28;45278;-52
2022/06/19 06:18:29;;;;;;;;;12.75;7.50;;;;;21.11;53.41;100382.31;5019863;28;45154;-52
2022/06/19 06:20:55;;;;;;;;;8.25;7.00;;;;;21.18;53.14;100390.78;5019444;28;45210;-50
2022/06/19 06:23:20;;;;;;;;;11.25;10.00;;;;;21.17;53.12;100408.63;5034574;28;48558;-53
2022/06/19 06:25:45;;;;;;;;;12.25;9.25;;;;;21.18;52.88;100413.03;5019184;28;45315;-53
2022/06/19 06:28:11;;;;;;;;;6.75;6.75;;;;;21.15;52.98;100441.75;5019663;28;45432;-49
2022/06/19 06:30:36;;;;;;;;;6.00;6.00;;;;;21.13;52.92;100457.00;5034708;28;45376;-50
2022/06/19 06:33:03;;;;;;;;;9.50;8.00;;;;;21.18;52.98;100476.28;5019234;28;45238;-48
2022/06/19 06:35:28;;;;;;;;;44.75;37.50;;;;;21.21;53.04;100479.63;5019125;28;45474;-53
2022/06/19 06:37:59;;;;;;;;;226.00;210.50;;;;;21.18;52.94;100503.00;5020136;28;45980;-52
2022/06/19 06:40:24;;;;;;;;;62.50;51.75;;;;;21.13;53.03;100489.06;5022433;28;45224;-50
2022/06/19 06:42:51;;;;;;;;;7.00;6.25;;;;;21.18;53.12;100454.91;5022662;28;45295;-53
2022/06/19 06:45:16;;;;;;;;;431.40;402.80;;;;;21.25;53.18;100448.22;5021232;28;46017;-52
2022/06/19 06:47:42;;;;;;;;;13.75;12.25;;;;;21.29;52.94;100454.22;5038016;28;45259;-52
2022/06/19 06:50:07;;;;;;;;;9.00;7.00;;;;;21.27;52.45;100393.72;5018395;28;45739;-53
2022/06/19 06:52:33;;;;;;;;;13.75;13.25;;;;;21.39;53.01;100384.03;5022517;28;45469;-53
2022/06/19 06:54:58;;;;;;;;;9.00;6.25;;;;;21.42;52.61;100367.81;5022433;28;45408;-53
2022/06/19 06:57:23;;;;;;;;;12.25;10.25;;;;;21.45;53.25;100401.50;5037904;28;45270;-52
2022/06/19 06:59:49;;;;;;;;;7.25;6.75;;;;;21.47;52.20;100380.00;5022351;28;45303;-53
2022/06/19 07:02:14;;;;;;;;;10.75;9.00;;;;;21.44;52.75;100375.72;5022112;28;49386;-52
2022/06/19 07:04:39;;;;;;;;;8.50;7.00;;;;;21.41;51.97;100384.81;5022350;28;45300;-53
2022/06/19 07:07:05;;;;;;;;;9.75;6.75;;;;;21.36;52.42;100373.56;5021129;28;45343;-53
2022/06/19 07:09:30;;;;;;;;;9.00;7.75;;;;;21.43;52.50;100385.56;5022354;28;45336;-51
2022/06/19 07:11:55;;;;;;;;;8.50;7.25;;;;;21.43;52.28;100380.22;5020730;28;47076;-54
2022/06/19 07:14:21;;;;;;;;;9.00;7.00;;;;;21.47;52.16;100324.75;5022249;28;45478;-53
2022/06/19 07:16:46;;;;;;;;;12.00;9.75;;;;;21.41;52.96;100296.63;5022153;28;45257;-52
2022/06/19 07:19:12;;;;;;;;;12.25;10.00;;;;;21.43;52.39;100315.22;5022180;28;45327;-56
2022/06/19 07:21:38;;;;;;;;;11.75;10.00;;;;;21.42;52.31;100348.25;5021989;28;45541;-51
2022/06/19 07:24:03;;;;;;;;;9.25;8.75;;;;;21.43;53.36;100406.97;5021962;28;45181;-54
2022/06/19 07:26:29;;;;;;;;;15.00;8.75;;;;;21.26;53.60;100498.03;5021952;28;45330;-52
2022/06/19 07:28:55;;;;;;;;;10.00;9.25;;;;;21.02;53.83;100544.03;5020837;28;45695;-52
2022/06/19 07:31:20;;;;;;;;;11.00;11.00;;;;;20.81;54.52;100564.88;5021611;28;45984;-51
2022/06/19 07:33:46;;;;;;;;;11.00;9.75;;;;;20.68;54.24;100577.19;5021838;28;45248;-51
2022/06/19 07:36:19;;;;;;;;;13.75;9.75;;;;;20.75;54.98;100562.56;5022375;28;45230;-52
2022/06/19 07:38:44;;;;;;;;;9.00;9.00;;;;;20.86;54.84;100604.66;5021807;28;45392;-51
2022/06/19 07:41:10;;;;;;;;;9.25;9.25;;;;;20.84;54.34;100622.56;5021603;28;46255;-51
2022/06/19 07:43:35;;;;;;;;;11.25;9.25;;;;;20.75;54.60;100643.53;5021695;28;45295;-51
2022/06/19 07:46:01;;;;;;;;;14.50;11.50;;;;;20.63;55.10;100625.53;5021812;28;45418;-50
2022/06/19 07:51:10;;;;;;;;;8.75;8.00;;;;;20.92;54.75;100578.44;5020664;28;45366;-52
2022/06/19 07:53:36;;;;;;;;;12.50;11.75;;;;;21.03;54.28;100611.66;5021428;28;45205;-48
2022/06/19 07:56:01;;;;;;;;;13.50;9.25;;;;;21.06;53.67;100622.16;5021503;28;45359;-51
2022/06/19 07:58:26;;;;;;;;;10.00;8.50;;;;;21.15;53.40;100642.13;5021507;28;45489;-49
2022/06/19 08:00:52;;;;;;;;;12.75;10.25;;;;;21.05;53.07;100652.50;5021453;28;46186;-52
2022/06/19 08:03:17;;;;;;;;;10.75;8.50;;;;;21.08;53.07;100647.84;5021126;28;45220;-52
2022/06/19 08:05:45;;;;;;;;;12.25;8.00;;;;;21.16;52.72;100649.19;5021752;28;45292;-50
2022/06/19 08:08:18;;;;;;;;;11.50;11.50;;;;;21.20;53.31;100648.88;5021379;28;45487;-50
2022/06/19 08:10:45;;;;;;;;;13.25;10.25;;;;;21.18;52.96;100618.75;5020456;28;46172;-48
2022/06/19 08:13:11;;;;;;;;;10.00;10.00;;;;;21.23;52.72;100619.34;5021120;28;45424;-48
2022/06/19 08:15:37;;;;;;;;;10.75;10.00;;;;;21.31;52.87;100618.84;5021538;28;45346;-51
2022/06/19 08:18:03;;;;;;;;;12.00;10.00;;;;;21.41;53.70;100633.38;5021109;28;45297;-48
2022/06/19 08:20:29;;;;;;;;;6.25;6.25;;;;;21.48;52.75;100646.34;5021248;28;46316;-48
2022/06/19 08:22:56;;;;;;;;;9.00;6.50;;;;;21.51;52.94;100630.13;5020980;28;45293;-49
2022/06/19 08:25:23;;;;;;;;;7.75;7.00;;;;;21.55;52.60;100629.00;5021157;28;45256;-50
2022/06/19 08:27:50;;;;;;;;;9.75;8.00;;;;;21.60;52.73;100608.22;5020482;28;45537;-49
2022/06/19 08:30:18;;;;;;;;;9.00;9.00;;;;;21.67;52.04;100569.44;5021053;28;45273;-47
2022/06/19 08:32:44;;;;;;;;;9.75;9.00;;;;;21.79;52.16;100540.19;5020632;28;45289;-50
2022/06/19 08:35:09;;;;;;;;;12.75;9.75;;;;;21.88;51.87;100510.16;5020970;28;45319;-48
2022/06/19 08:37:38;;;;;;;;;9.75;9.00;;;;;21.96;51.61;100499.84;5020784;28;45243;-48
2022/06/19 08:40:18;;;;;;;;;7.50;7.00;;;;;22.06;51.16;100489.34;5020717;28;46405;-51
2022/06/19 08:43:02;;;;;;;;;8.00;6.25;;;;;22.11;50.55;100448.94;5020836;28;45310;-49
2022/06/19 08:45:27;;;;;;;;;9.00;7.00;;;;;22.14;50.65;100416.59;5019326;28;45460;-51
2022/06/19 08:48:18;;;;;;;;;9.00;7.00;;;;;22.13;50.59;100421.09;5035365;28;45442;-56
2022/06/19 08:50:59;;;;;;;;;10.00;6.75;;;;;22.26;50.04;100473.81;5020689;28;46018;-57
2022/06/19 08:53:42;;;;;;;;;9.00;8.50;;;;;;;;5020609;28;45244;-56
2022/06/19 08:56:16;;;;;;;;;8.50;8.50;;;;;22.34;50.36;100434.84;5020625;28;45410;-66
2022/06/19 08:59:02;;;;;;;;;9.75;7.25;;;;;22.42;50.63;100430.81;5020407;28;45395;-63
2022/06/19 09:02:02;;;;;;;;;8.00;7.50;;;;;22.43;50.62;100437.88;5035053;28;46363;-61
2022/06/19 09:08:08;;;;;;;;;12.50;9.00;;;;;22.51;50.48;100478.38;5020584;28;45234;-63
2022/06/19 09:10:46;;;;;;;;;9.00;8.75;;;;;22.61;50.17;100487.47;5000525;28;45422;-65
2022/06/19 09:13:35;;;;;;;;;7.00;5.75;;;;;22.80;49.78;100545.97;5020178;28;47020;-66
2022/06/19 09:16:02;;;;;;;;;9.50;8.75;;;;;22.98;50.06;100562.63;5020013;28;45339;-65
2022/06/19 09:18:39;;;;;;;;;12.00;9.50;;;;;23.26;49.25;100570.56;5020503;28;45304;-66
2022/06/19 09:21:43;;;;;;;;;8.50;7.75;;;;;23.60;48.92;100563.69;5020286;28;45248;-69
2022/06/19 09:24:15;;;;;;;;;11.25;8.50;;;;;23.72;48.43;100569.97;5014173;28;45470;-64
2022/06/19 09:26:55;;;;;;;;;12.00;12.00;;;;;23.75;48.92;100572.44;5019931;28;45304;-65
2022/06/19 09:29:38;;;;;;;;;12.75;11.75;;;;;23.79;48.02;100562.34;5035262;28;45266;-62
2022/06/19 09:32:16;;;;;;;;;14.75;12.75;;;;;24.12;47.85;100576.97;5019792;28;45447;-60
2022/06/19 09:35:00;;;;;;;;;11.75;11.00;;;;;24.37;47.49;100567.94;5008196;28;45480;-60
2022/06/19 09:37:35;;;;;;;;;13.00;12.50;;;;;24.60;47.02;100576.06;5019963;28;45176;-60
2022/06/19 09:40:31;;;;;;;;;12.50;11.50;;;;;24.46;47.26;100575.28;5020120;28;45297;-60
2022/06/19 09:43:24;;;;;;;;;15.75;14.50;;;;;24.37;47.34;100584.03;5019939;28;45203;-60
2022/06/19 09:46:01;;;;;;;;;13.25;13.00;;;;;24.35;47.11;100572.56;5019675;28;46357;-61
2022/06/19 09:48:29;;;;;;;;;16.50;15.50;;;;;24.33;47.08;100569.16;5009506;28;45431;-60
2022/06/19 09:51:10;;;;;;;;;15.75;14.25;;;;;24.32;46.91;100556.69;5035225;28;45363;-60
2022/06/19 09:53:35;;;;;;;;;20.00;13.75;;;;;24.32;46.92;100556.69;5019791;28;45445;-60
2022/06/19 09:56:49;;;;;;;;;15.00;12.75;;;;;24.34;46.32;100560.97;5019354;28;45220;-60
2022/06/19 09:59:49;;;;;;;;;17.75;13.75;;;;;24.35;46.50;100569.88;5001579;28;45326;-60
2022/06/19 10:02:41;;;;;;;;;18.75;14.75;;;;;24.34;46.61;100573.56;5006183;28;45327;-61
2022/06/19 10:05:09;;;;;;;;;19.25;18.50;;;;;24.37;46.19;100575.16;5014026;28;45247;-60
2022/06/19 10:07:51;;;;;;;;;15.50;12.00;;;;;24.36;46.39;100574.28;5019496;28;45319;-61
2022/06/19 10:10:40;;;;;;;;;14.75;14.00;;;;;24.42;46.18;100571.13;5019217;28;45233;-61
2022/06/19 10:13:13;;;;;;;;;16.25;14.25;;;;;24.47;46.50;100570.78;5020408;28;45395;-60
2022/06/19 10:15:43;;;;;;;;;15.50;15.00;;;;;24.50;46.09;100563.38;5023028;28;45344;-61
2022/06/19 10:18:18;;;;;;;;;18.25;14.75;;;;;24.57;45.97;100557.53;5038215;28;45812;-60
2022/06/19 10:21:01;;;;;;;;;18.50;15.25;;;;;24.62;45.71;100558.88;5022918;28;45382;-61
2022/06/19 10:23:51;;;;;;;;;20.25;16.50;;;;;24.67;45.84;100545.97;5021650;28;45330;-61
2022/06/19 10:26:25;;;;;;;;;18.00;17.00;;;;;24.74;46.06;100532.94;5022585;28;45253;-61
2022/06/19 10:29:07;;;;;;;;;15.75;13.25;;;;;24.80;45.52;100526.22;5022421;28;47301;-60
2022/06/19 10:32:00;;;;;;;;;16.00;15.00;;;;;24.95;45.92;100526.88;5022612;28;45426;-61
2022/06/19 10:34:41;;;;;;;;;15.75;13.75;;;;;25.07;45.49;100522.34;5022654;28;45463;-61
2022/06/19 10:37:31;;;;;;;;;19.25;15.25;;;;;25.17;45.60;100515.28;5022706;28;45182;-61
2022/06/19 10:40:08;;;;;;;;;20.75;18.75;;;;;25.33;45.23;100514.03;5022732;28;47448;-60
2022/06/19 10:43:03;;;;;;;;;22.00;17.33;;;;;25.46;45.70;100507.59;5022422;28;45244;-61
2022/06/19 10:45:41;;;;;;;;;14.75;14.25;;;;;25.65;45.33;100514.16;4985964;28;45236;-61
2022/06/19 10:48:27;;;;;;;;;14.75;14.75;;;;;25.84;44.91;100510.81;5020793;28;45406;-61
2022/06/19 10:51:02;;;;;;;;;17.50;15.75;;;;;26.07;45.70;100506.22;5010081;28;46363;-62
2022/06/19 10:53:45;;;;;;;;;16.00;16.00;;;;;26.36;46.03;100510.16;5022366;28;45430;-62
2022/06/19 10:56:37;;;;;;;;;17.00;16.00;;;;;26.76;45.92;100504.09;5022315;28;45289;-62
2022/06/19 10:59:04;;;;;;;;;17.75;15.00;;;;;27.15;45.79;100498.88;5022748;28;45241;-62
2022/06/19 11:04:34;;;;;;;;;19.25;17.25;;;;;28.21;46.85;100507.41;5022431;28;45174;-63
2022/06/19 11:07:11;;;;;;;;;18.75;16.75;;;;;28.82;47.13;100502.66;5022184;28;45304;-62
2022/06/19 11:09:45;;;;;;;;;20.25;17.50;;;;;29.41;46.54;100502.47;5022244;28;45562;-62
2022/06/19 11:12:20;;;;;;;;;18.50;16.50;;;;;29.98;46.47;100493.28;5021789;28;47337;-62
2022/06/19 11:14:54;;;;;;;;;17.50;16.75;;;;;30.59;46.12;100496.16;5022000;28;45268;-61
2022/06/19 11:17:31;;;;;;;;;16.25;14.75;;;;;31.26;46.39;100501.00;5022097;28;45181;-62
2022/06/19 11:19:56;;;;;;;;;16.50;14.75;;;;;31.88;45.17;100506.13;5021964;28;45566;-62
2022/06/19 11:22:24;;;;;;;;;15.25;14.50;;;;;32.47;44.30;100499.75;5021889;28;45943;-61
2022/06/19 11:24:51;;;;;;;;;20.25;18.00;;;;;33.05;44.56;100503.22;5021694;28;45331;-61
2022/06/19 11:27:26;;;;;;;;;18.50;17.75;;;;;33.63;43.49;100516.59;5021986;28;45381;-61
2022/06/19 11:29:56;;;;;;;;;24.00;23.00;;;;;34.12;42.71;100526.38;5020641;28;45370;-62
2022/06/19 11:32:24;;;;;;;;;18.00;17.75;;;;;34.63;41.48;100514.88;5021515;28;46390;-61
2022/06/19 11:35:03;;;;;;;;;15.00;13.25;;;;;35.08;41.58;100504.03;5021825;28;45343;-61
2022/06/19 11:37:34;;;;;;;;;15.25;13.50;;;;;35.47;40.37;100505.63;5021813;28;45308;-61
2022/06/19 11:39:59;;;;;;;;;16.50;15.25;;;;;35.81;38.78;100505.97;5021636;28;45258;-61